Hlavní strana
METAR-TAF:

METAR-TAF

Letiště :

Port Moresby, Papua-Nová Guinea

zeměpisná šířka: 09-26S, zeměpisná délka: 147-13E, výška: 38 m

Aktuální stav počasí

Zpráva byla vytvořena před 40 minutami, v 09:00 UTC
Jihovýchodní vítr 12 kt
Teplota 27°C
Vlhkost vzduchu 84%
Tlak 1012 hPa
Viditelnost 10 km a více
Polojasno ve výšce 9000 ft
Skoro jasno ve výšce 7000 ft

METAR: AYPY 190900Z 14012KT 9999 SCT090 FEW070 27/24 Q1012

Čas: 19:40 (09:40 UTC)

Předpověď počasí

Zpráva byla vytvořena před 6 hodinami a 25 minutami, v 03:15 UTC
Předpověď platná od 19 v 06 UTC do 20 v 06 UTC
Jižní vítr 15 kt
Viditelnost 10 km a více
Polojasno ve výšce 2000 ft

TAF: AYPY 190315Z 1906/2006 17015KT 9999 SCT020

Stav a předpovědi počasí z více než 4 000 letišť (zprávy METAR a TAF).

Červené a žluté tečky na mapě představují dostupné meteorologické stanice.

Když kurzor umístíte na tečku, zobrazí se název stanice.

Pak kliknutím zobrazíte stav a předpověď počasí.

Chcete-li změnit mapu, kliknutím na zelené tlačítko se znaménkem +mapu přiblížíte, kliknutím na zelené tlačítko se znaménkem – mapu oddálíte a kliknutím na zelené šipky přejdete na sousední mapy.


METAR-TAF: